sensor_id;sensor_type;location;lat;lon;timestamp;P1;durP1;ratioP1;P2;durP2;ratioP2
19687;SDS011;9993;52.008;4.732;2022-10-26T00:01:19;10.43;;;6.60;;
19687;SDS011;9993;52.008;4.732;2022-10-26T00:03:45;9.10;;;7.30;;
19687;SDS011;9993;52.008;4.732;2022-10-26T00:06:17;9.93;;;5.47;;
19687;SDS011;9993;52.008;4.732;2022-10-26T00:08:43;6.63;;;5.90;;
19687;SDS011;9993;52.008;4.732;2022-10-26T00:11:09;11.57;;;6.30;;
19687;SDS011;9993;52.008;4.732;2022-10-26T00:13:35;6.23;;;5.27;;
19687;SDS011;9993;52.008;4.732;2022-10-26T00:16:00;10.23;;;5.93;;
19687;SDS011;9993;52.008;4.732;2022-10-26T00:18:26;8.43;;;5.90;;
19687;SDS011;9993;52.008;4.732;2022-10-26T00:20:51;10.97;;;6.03;;
19687;SDS011;9993;52.008;4.732;2022-10-26T00:23:16;7.67;;;5.80;;
19687;SDS011;9993;52.008;4.732;2022-10-26T00:25:42;9.57;;;5.83;;
19687;SDS011;9993;52.008;4.732;2022-10-26T00:28:07;13.03;;;6.80;;
19687;SDS011;9993;52.008;4.732;2022-10-26T00:30:32;10.27;;;6.43;;
19687;SDS011;9993;52.008;4.732;2022-10-26T00:32:57;10.10;;;6.03;;
19687;SDS011;9993;52.008;4.732;2022-10-26T00:35:23;10.83;;;6.70;;
19687;SDS011;9993;52.008;4.732;2022-10-26T00:37:48;10.53;;;6.90;;
19687;SDS011;9993;52.008;4.732;2022-10-26T00:40:17;10.23;;;6.60;;
19687;SDS011;9993;52.008;4.732;2022-10-26T00:42:42;10.53;;;6.30;;
19687;SDS011;9993;52.008;4.732;2022-10-26T00:45:24;8.73;;;6.73;;
19687;SDS011;9993;52.008;4.732;2022-10-26T00:47:52;12.57;;;7.47;;
19687;SDS011;9993;52.008;4.732;2022-10-26T00:50:19;13.30;;;7.23;;
19687;SDS011;9993;52.008;4.732;2022-10-26T00:52:46;10.80;;;7.93;;
19687;SDS011;9993;52.008;4.732;2022-10-26T00:55:12;11.30;;;7.13;;
19687;SDS011;9993;52.008;4.732;2022-10-26T00:57:37;11.30;;;6.90;;
19687;SDS011;9993;52.008;4.732;2022-10-26T01:00:03;12.40;;;7.17;;
19687;SDS011;9993;52.008;4.732;2022-10-26T01:02:29;12.30;;;7.00;;
19687;SDS011;9993;52.008;4.732;2022-10-26T01:04:54;9.87;;;7.63;;
19687;SDS011;9993;52.008;4.732;2022-10-26T01:07:20;10.57;;;7.37;;
19687;SDS011;9993;52.008;4.732;2022-10-26T01:09:45;13.37;;;7.20;;
19687;SDS011;9993;52.008;4.732;2022-10-26T01:12:11;10.23;;;6.87;;
19687;SDS011;9993;52.008;4.732;2022-10-26T01:14:36;11.10;;;7.23;;
19687;SDS011;9993;52.008;4.732;2022-10-26T01:22:18;11.87;;;7.53;;
19687;SDS011;9993;52.008;4.732;2022-10-26T01:27:35;9.83;;;6.70;;
19687;SDS011;9993;52.008;4.732;2022-10-26T01:37:41;12.13;;;7.53;;
19687;SDS011;9993;52.008;4.732;2022-10-26T01:40:10;10.77;;;7.17;;
19687;SDS011;9993;52.008;4.732;2022-10-26T01:42:41;12.23;;;8.37;;
19687;SDS011;9993;52.008;4.732;2022-10-26T01:45:08;10.53;;;8.00;;
19687;SDS011;9993;52.008;4.732;2022-10-26T01:47:35;10.07;;;7.60;;
19687;SDS011;9993;52.008;4.732;2022-10-26T01:50:02;15.83;;;8.70;;
19687;SDS011;9993;52.008;4.732;2022-10-26T01:52:28;11.57;;;8.37;;
19687;SDS011;9993;52.008;4.732;2022-10-26T01:55:00;14.83;;;7.73;;
19687;SDS011;9993;52.008;4.732;2022-10-26T01:57:25;15.77;;;8.37;;
19687;SDS011;9993;52.008;4.732;2022-10-26T01:59:55;11.33;;;7.90;;
19687;SDS011;9993;52.008;4.732;2022-10-26T02:12:56;12.53;;;8.43;;
19687;SDS011;9993;52.008;4.732;2022-10-26T02:15:43;12.53;;;8.03;;
19687;SDS011;9993;52.008;4.732;2022-10-26T02:20:47;11.87;;;8.30;;
19687;SDS011;9993;52.008;4.732;2022-10-26T02:23:13;10.13;;;7.00;;
19687;SDS011;9993;52.008;4.732;2022-10-26T02:25:40;11.23;;;8.10;;
19687;SDS011;9993;52.008;4.732;2022-10-26T02:28:08;10.60;;;8.73;;
19687;SDS011;9993;52.008;4.732;2022-10-26T02:30:33;13.53;;;8.47;;
19687;SDS011;9993;52.008;4.732;2022-10-26T02:32:59;11.57;;;8.00;;
19687;SDS011;9993;52.008;4.732;2022-10-26T02:35:31;15.73;;;8.43;;
19687;SDS011;9993;52.008;4.732;2022-10-26T02:37:58;12.43;;;8.33;;
19687;SDS011;9993;52.008;4.732;2022-10-26T02:40:25;10.83;;;7.67;;
19687;SDS011;9993;52.008;4.732;2022-10-26T02:42:50;13.90;;;8.27;;
19687;SDS011;9993;52.008;4.732;2022-10-26T02:45:17;12.07;;;7.80;;
19687;SDS011;9993;52.008;4.732;2022-10-26T02:47:44;8.93;;;7.60;;
19687;SDS011;9993;52.008;4.732;2022-10-26T02:50:10;13.37;;;8.07;;
19687;SDS011;9993;52.008;4.732;2022-10-26T02:58:01;11.57;;;7.60;;
19687;SDS011;9993;52.008;4.732;2022-10-26T03:00:26;11.07;;;7.57;;
19687;SDS011;9993;52.008;4.732;2022-10-26T03:02:54;12.30;;;7.82;;
19687;SDS011;9993;52.008;4.732;2022-10-26T03:05:28;12.93;;;7.90;;
19687;SDS011;9993;52.008;4.732;2022-10-26T03:07:54;9.63;;;7.03;;
19687;SDS011;9993;52.008;4.732;2022-10-26T03:10:20;10.77;;;6.80;;
19687;SDS011;9993;52.008;4.732;2022-10-26T03:12:45;12.57;;;7.40;;
19687;SDS011;9993;52.008;4.732;2022-10-26T03:15:10;11.10;;;7.28;;
19687;SDS011;9993;52.008;4.732;2022-10-26T03:17:36;10.87;;;7.17;;
19687;SDS011;9993;52.008;4.732;2022-10-26T03:20:01;10.00;;;7.13;;
19687;SDS011;9993;52.008;4.732;2022-10-26T03:22:26;11.10;;;7.60;;
19687;SDS011;9993;52.008;4.732;2022-10-26T03:24:51;11.23;;;6.82;;
19687;SDS011;9993;52.008;4.732;2022-10-26T03:27:17;8.50;;;6.63;;
19687;SDS011;9993;52.008;4.732;2022-10-26T03:29:42;6.80;;;6.10;;
19687;SDS011;9993;52.008;4.732;2022-10-26T03:32:07;13.20;;;7.10;;
19687;SDS011;9993;52.008;4.732;2022-10-26T03:34:32;9.60;;;6.27;;
19687;SDS011;9993;52.008;4.732;2022-10-26T03:36:57;7.33;;;6.13;;
19687;SDS011;9993;52.008;4.732;2022-10-26T03:39:23;14.40;;;8.80;;
19687;SDS011;9993;52.008;4.732;2022-10-26T03:41:48;10.38;;;6.93;;
19687;SDS011;9993;52.008;4.732;2022-10-26T03:44:13;8.70;;;6.60;;
19687;SDS011;9993;52.008;4.732;2022-10-26T03:46:38;10.23;;;6.83;;
19687;SDS011;9993;52.008;4.732;2022-10-26T03:49:03;9.37;;;6.23;;
19687;SDS011;9993;52.008;4.732;2022-10-26T03:51:29;11.77;;;6.63;;
19687;SDS011;9993;52.008;4.732;2022-10-26T03:53:54;8.97;;;6.53;;
19687;SDS011;9993;52.008;4.732;2022-10-26T03:56:19;10.43;;;6.70;;
19687;SDS011;9993;52.008;4.732;2022-10-26T03:58:44;8.33;;;5.70;;
19687;SDS011;9993;52.008;4.732;2022-10-26T04:01:09;8.10;;;6.63;;
19687;SDS011;9993;52.008;4.732;2022-10-26T04:03:35;9.10;;;5.90;;
19687;SDS011;9993;52.008;4.732;2022-10-26T04:06:00;10.23;;;7.27;;
19687;SDS011;9993;52.008;4.732;2022-10-26T04:08:25;9.80;;;5.90;;
19687;SDS011;9993;52.008;4.732;2022-10-26T04:10:51;9.23;;;7.23;;
19687;SDS011;9993;52.008;4.732;2022-10-26T04:13:16;10.87;;;6.77;;
19687;SDS011;9993;52.008;4.732;2022-10-26T04:15:41;11.87;;;6.87;;
19687;SDS011;9993;52.008;4.732;2022-10-26T04:18:07;8.53;;;6.27;;
19687;SDS011;9993;52.008;4.732;2022-10-26T04:20:32;11.23;;;6.37;;
19687;SDS011;9993;52.008;4.732;2022-10-26T04:23:02;9.80;;;6.43;;
19687;SDS011;9993;52.008;4.732;2022-10-26T04:25:28;9.87;;;6.40;;
19687;SDS011;9993;52.008;4.732;2022-10-26T04:27:53;8.83;;;6.10;;
19687;SDS011;9993;52.008;4.732;2022-10-26T04:30:19;8.10;;;6.47;;
19687;SDS011;9993;52.008;4.732;2022-10-26T04:32:44;10.30;;;6.67;;
19687;SDS011;9993;52.008;4.732;2022-10-26T04:35:09;10.47;;;6.57;;
19687;SDS011;9993;52.008;4.732;2022-10-26T04:37:35;8.60;;;5.60;;
19687;SDS011;9993;52.008;4.732;2022-10-26T04:40:00;11.17;;;6.20;;
19687;SDS011;9993;52.008;4.732;2022-10-26T04:42:25;9.00;;;6.20;;
19687;SDS011;9993;52.008;4.732;2022-10-26T04:44:50;9.93;;;6.47;;
19687;SDS011;9993;52.008;4.732;2022-10-26T04:47:15;14.03;;;6.33;;
19687;SDS011;9993;52.008;4.732;2022-10-26T04:49:41;8.57;;;6.20;;
19687;SDS011;9993;52.008;4.732;2022-10-26T04:52:06;8.20;;;5.87;;
19687;SDS011;9993;52.008;4.732;2022-10-26T04:54:31;8.70;;;6.13;;
19687;SDS011;9993;52.008;4.732;2022-10-26T04:56:56;9.67;;;6.33;;
19687;SDS011;9993;52.008;4.732;2022-10-26T04:59:21;11.93;;;6.10;;
19687;SDS011;9993;52.008;4.732;2022-10-26T05:01:47;10.77;;;6.63;;
19687;SDS011;9993;52.008;4.732;2022-10-26T05:04:12;10.20;;;7.27;;
19687;SDS011;9993;52.008;4.732;2022-10-26T05:06:37;11.17;;;7.17;;
19687;SDS011;9993;52.008;4.732;2022-10-26T05:09:02;9.87;;;6.40;;
19687;SDS011;9993;52.008;4.732;2022-10-26T05:11:27;8.57;;;5.90;;
19687;SDS011;9993;52.008;4.732;2022-10-26T05:13:53;8.90;;;5.67;;
19687;SDS011;9993;52.008;4.732;2022-10-26T05:16:18;9.20;;;6.20;;
19687;SDS011;9993;52.008;4.732;2022-10-26T05:18:43;14.00;;;6.88;;
19687;SDS011;9993;52.008;4.732;2022-10-26T05:21:11;10.83;;;7.00;;
19687;SDS011;9993;52.008;4.732;2022-10-26T05:23:43;7.77;;;6.17;;
19687;SDS011;9993;52.008;4.732;2022-10-26T05:26:08;8.53;;;6.20;;
19687;SDS011;9993;52.008;4.732;2022-10-26T05:28:33;8.10;;;5.67;;
19687;SDS011;9993;52.008;4.732;2022-10-26T05:30:58;10.00;;;6.10;;
19687;SDS011;9993;52.008;4.732;2022-10-26T05:33:24;10.40;;;6.20;;
19687;SDS011;9993;52.008;4.732;2022-10-26T05:35:52;14.03;;;6.43;;
19687;SDS011;9993;52.008;4.732;2022-10-26T05:38:17;7.37;;;5.83;;
19687;SDS011;9993;52.008;4.732;2022-10-26T05:40:46;11.47;;;7.70;;
19687;SDS011;9993;52.008;4.732;2022-10-26T05:43:12;11.20;;;6.90;;
19687;SDS011;9993;52.008;4.732;2022-10-26T05:45:37;8.47;;;6.27;;
19687;SDS011;9993;52.008;4.732;2022-10-26T05:48:03;7.30;;;5.53;;
19687;SDS011;9993;52.008;4.732;2022-10-26T05:50:28;8.13;;;6.13;;
19687;SDS011;9993;52.008;4.732;2022-10-26T05:52:53;11.47;;;6.07;;
19687;SDS011;9993;52.008;4.732;2022-10-26T05:55:19;7.97;;;5.80;;
19687;SDS011;9993;52.008;4.732;2022-10-26T05:57:45;7.68;;;5.50;;
19687;SDS011;9993;52.008;4.732;2022-10-26T06:02:46;6.50;;;5.10;;
19687;SDS011;9993;52.008;4.732;2022-10-26T06:05:15;10.43;;;6.47;;
19687;SDS011;9993;52.008;4.732;2022-10-26T06:07:42;9.73;;;4.90;;
19687;SDS011;9993;52.008;4.732;2022-10-26T06:10:09;6.63;;;4.43;;
19687;SDS011;9993;52.008;4.732;2022-10-26T06:12:34;9.17;;;5.67;;
19687;SDS011;9993;52.008;4.732;2022-10-26T06:15:00;10.20;;;6.20;;
19687;SDS011;9993;52.008;4.732;2022-10-26T06:22:18;7.83;;;4.60;;
19687;SDS011;9993;52.008;4.732;2022-10-26T06:25:09;8.13;;;4.77;;
19687;SDS011;9993;52.008;4.732;2022-10-26T06:27:48;11.47;;;5.73;;
19687;SDS011;9993;52.008;4.732;2022-10-26T06:30:14;5.60;;;4.37;;
19687;SDS011;9993;52.008;4.732;2022-10-26T06:32:42;6.83;;;4.60;;
19687;SDS011;9993;52.008;4.732;2022-10-26T06:37:36;8.35;;;6.10;;
19687;SDS011;9993;52.008;4.732;2022-10-26T06:40:03;8.65;;;5.10;;
19687;SDS011;9993;52.008;4.732;2022-10-26T06:42:29;6.43;;;5.00;;
19687;SDS011;9993;52.008;4.732;2022-10-26T06:44:55;7.23;;;4.33;;
19687;SDS011;9993;52.008;4.732;2022-10-26T06:47:22;5.33;;;3.97;;
19687;SDS011;9993;52.008;4.732;2022-10-26T06:52:40;12.37;;;4.40;;
19687;SDS011;9993;52.008;4.732;2022-10-26T06:55:16;8.43;;;4.60;;
19687;SDS011;9993;52.008;4.732;2022-10-26T06:57:44;8.07;;;4.70;;
19687;SDS011;9993;52.008;4.732;2022-10-26T07:00:26;4.17;;;3.77;;
19687;SDS011;9993;52.008;4.732;2022-10-26T07:02:51;6.90;;;4.50;;
19687;SDS011;9993;52.008;4.732;2022-10-26T07:05:24;8.53;;;4.70;;
19687;SDS011;9993;52.008;4.732;2022-10-26T07:07:56;5.27;;;4.27;;
19687;SDS011;9993;52.008;4.732;2022-10-26T07:10:26;7.43;;;4.60;;
19687;SDS011;9993;52.008;4.732;2022-10-26T07:13:00;7.27;;;4.60;;
19687;SDS011;9993;52.008;4.732;2022-10-26T07:15:25;4.63;;;4.10;;
19687;SDS011;9993;52.008;4.732;2022-10-26T07:17:51;8.73;;;4.27;;
19687;SDS011;9993;52.008;4.732;2022-10-26T07:20:16;4.97;;;4.33;;
19687;SDS011;9993;52.008;4.732;2022-10-26T07:22:42;7.77;;;4.63;;
19687;SDS011;9993;52.008;4.732;2022-10-26T07:25:10;4.67;;;4.23;;
19687;SDS011;9993;52.008;4.732;2022-10-26T07:27:36;5.97;;;4.97;;
19687;SDS011;9993;52.008;4.732;2022-10-26T07:30:01;5.90;;;4.63;;
19687;SDS011;9993;52.008;4.732;2022-10-26T07:32:27;5.33;;;4.30;;
19687;SDS011;9993;52.008;4.732;2022-10-26T07:34:52;6.20;;;4.40;;
19687;SDS011;9993;52.008;4.732;2022-10-26T07:37:17;6.47;;;5.33;;
19687;SDS011;9993;52.008;4.732;2022-10-26T07:39:42;7.23;;;5.03;;
19687;SDS011;9993;52.008;4.732;2022-10-26T07:42:07;8.83;;;5.20;;
19687;SDS011;9993;52.008;4.732;2022-10-26T07:44:33;5.90;;;4.50;;
19687;SDS011;9993;52.008;4.732;2022-10-26T07:46:58;7.55;;;4.88;;
19687;SDS011;9993;52.008;4.732;2022-10-26T07:49:24;6.07;;;5.00;;
19687;SDS011;9993;52.008;4.732;2022-10-26T07:51:49;8.02;;;4.47;;
19687;SDS011;9993;52.008;4.732;2022-10-26T07:56:43;9.70;;;5.30;;
19687;SDS011;9993;52.008;4.732;2022-10-26T07:59:10;7.95;;;5.03;;
19687;SDS011;9993;52.008;4.732;2022-10-26T08:01:35;8.23;;;5.13;;
19687;SDS011;9993;52.008;4.732;2022-10-26T08:04:00;5.75;;;5.15;;
19687;SDS011;9993;52.008;4.732;2022-10-26T08:06:26;7.53;;;5.47;;
19687;SDS011;9993;52.008;4.732;2022-10-26T08:08:51;8.67;;;5.03;;
19687;SDS011;9993;52.008;4.732;2022-10-26T08:11:16;6.80;;;5.03;;
19687;SDS011;9993;52.008;4.732;2022-10-26T08:13:41;7.77;;;5.20;;
19687;SDS011;9993;52.008;4.732;2022-10-26T08:16:07;9.52;;;4.95;;
19687;SDS011;9993;52.008;4.732;2022-10-26T08:18:32;9.07;;;5.55;;
19687;SDS011;9993;52.008;4.732;2022-10-26T08:21:05;7.10;;;5.22;;
19687;SDS011;9993;52.008;4.732;2022-10-26T08:23:31;9.02;;;4.97;;
19687;SDS011;9993;52.008;4.732;2022-10-26T08:26:00;9.95;;;5.03;;
19687;SDS011;9993;52.008;4.732;2022-10-26T08:28:26;6.13;;;4.85;;
19687;SDS011;9993;52.008;4.732;2022-10-26T08:30:51;6.47;;;4.47;;
19687;SDS011;9993;52.008;4.732;2022-10-26T08:33:16;7.45;;;4.75;;
19687;SDS011;9993;52.008;4.732;2022-10-26T08:35:42;7.47;;;4.40;;
19687;SDS011;9993;52.008;4.732;2022-10-26T08:38:07;5.90;;;4.53;;
19687;SDS011;9993;52.008;4.732;2022-10-26T08:40:34;6.95;;;4.18;;
19687;SDS011;9993;52.008;4.732;2022-10-26T08:43:02;7.13;;;4.57;;
19687;SDS011;9993;52.008;4.732;2022-10-26T08:45:30;6.35;;;3.90;;
19687;SDS011;9993;52.008;4.732;2022-10-26T08:47:57;5.03;;;4.13;;
19687;SDS011;9993;52.008;4.732;2022-10-26T08:50:41;5.03;;;4.55;;
19687;SDS011;9993;52.008;4.732;2022-10-26T08:55:41;5.93;;;3.70;;
19687;SDS011;9993;52.008;4.732;2022-10-26T08:58:09;7.35;;;3.85;;
19687;SDS011;9993;52.008;4.732;2022-10-26T09:00:37;6.10;;;3.67;;
19687;SDS011;9993;52.008;4.732;2022-10-26T09:03:05;4.90;;;4.30;;
19687;SDS011;9993;52.008;4.732;2022-10-26T09:05:37;6.45;;;3.80;;
19687;SDS011;9993;52.008;4.732;2022-10-26T09:08:08;5.13;;;3.50;;
19687;SDS011;9993;52.008;4.732;2022-10-26T09:18:55;6.18;;;4.65;;
19687;SDS011;9993;52.008;4.732;2022-10-26T09:24:28;8.18;;;3.53;;
19687;SDS011;9993;52.008;4.732;2022-10-26T09:26:57;5.75;;;3.78;;
19687;SDS011;9993;52.008;4.732;2022-10-26T09:29:26;8.48;;;3.67;;
19687;SDS011;9993;52.008;4.732;2022-10-26T09:31:52;5.53;;;3.95;;
19687;SDS011;9993;52.008;4.732;2022-10-26T09:34:38;3.67;;;3.35;;
19687;SDS011;9993;52.008;4.732;2022-10-26T09:37:12;6.65;;;2.95;;
19687;SDS011;9993;52.008;4.732;2022-10-26T09:39:41;4.82;;;3.55;;
19687;SDS011;9993;52.008;4.732;2022-10-26T09:42:11;10.27;;;3.65;;
19687;SDS011;9993;52.008;4.732;2022-10-26T09:44:44;4.10;;;3.10;;
19687;SDS011;9993;52.008;4.732;2022-10-26T09:49:46;5.15;;;3.25;;
19687;SDS011;9993;52.008;4.732;2022-10-26T09:52:14;6.50;;;3.13;;
19687;SDS011;9993;52.008;4.732;2022-10-26T09:54:39;4.45;;;3.20;;
19687;SDS011;9993;52.008;4.732;2022-10-26T09:57:04;5.53;;;3.65;;
19687;SDS011;9993;52.008;4.732;2022-10-26T09:59:34;5.45;;;3.53;;
19687;SDS011;9993;52.008;4.732;2022-10-26T10:02:07;4.68;;;3.53;;
19687;SDS011;9993;52.008;4.732;2022-10-26T10:04:47;7.65;;;3.33;;
19687;SDS011;9993;52.008;4.732;2022-10-26T10:07:12;6.30;;;3.65;;
19687;SDS011;9993;52.008;4.732;2022-10-26T10:09:38;4.95;;;2.92;;
19687;SDS011;9993;52.008;4.732;2022-10-26T10:12:03;4.60;;;2.63;;
19687;SDS011;9993;52.008;4.732;2022-10-26T10:14:29;6.63;;;3.03;;
19687;SDS011;9993;52.008;4.732;2022-10-26T10:16:56;3.38;;;2.80;;
19687;SDS011;9993;52.008;4.732;2022-10-26T10:19:33;4.85;;;2.88;;
19687;SDS011;9993;52.008;4.732;2022-10-26T10:21:59;4.25;;;2.30;;
19687;SDS011;9993;52.008;4.732;2022-10-26T10:24:31;7.28;;;2.88;;
19687;SDS011;9993;52.008;4.732;2022-10-26T10:29:26;6.57;;;2.53;;
19687;SDS011;9993;52.008;4.732;2022-10-26T10:31:58;6.28;;;2.75;;
19687;SDS011;9993;52.008;4.732;2022-10-26T10:34:24;3.33;;;3.03;;
19687;SDS011;9993;52.008;4.732;2022-10-26T10:36:49;5.97;;;2.90;;
19687;SDS011;9993;52.008;4.732;2022-10-26T10:41:59;4.35;;;2.70;;
19687;SDS011;9993;52.008;4.732;2022-10-26T10:44:25;4.65;;;2.97;;
19687;SDS011;9993;52.008;4.732;2022-10-26T10:47:02;3.30;;;3.00;;
19687;SDS011;9993;52.008;4.732;2022-10-26T10:49:28;2.97;;;2.78;;
19687;SDS011;9993;52.008;4.732;2022-10-26T10:51:54;4.78;;;3.38;;
19687;SDS011;9993;52.008;4.732;2022-10-26T10:54:21;6.13;;;3.30;;
19687;SDS011;9993;52.008;4.732;2022-10-26T11:02:35;5.07;;;3.15;;
19687;SDS011;9993;52.008;4.732;2022-10-26T11:07:50;5.30;;;3.08;;
19687;SDS011;9993;52.008;4.732;2022-10-26T11:10:17;4.93;;;3.00;;
19687;SDS011;9993;52.008;4.732;2022-10-26T11:12:47;7.13;;;3.20;;
19687;SDS011;9993;52.008;4.732;2022-10-26T11:15:18;7.57;;;3.42;;
19687;SDS011;9993;52.008;4.732;2022-10-26T11:20:20;4.82;;;3.20;;
19687;SDS011;9993;52.008;4.732;2022-10-26T11:26:02;3.08;;;2.80;;
19687;SDS011;9993;52.008;4.732;2022-10-26T11:28:34;2.95;;;2.42;;
19687;SDS011;9993;52.008;4.732;2022-10-26T11:31:02;3.28;;;2.92;;
19687;SDS011;9993;52.008;4.732;2022-10-26T11:33:32;6.88;;;2.75;;
19687;SDS011;9993;52.008;4.732;2022-10-26T11:36:04;6.05;;;2.92;;
19687;SDS011;9993;52.008;4.732;2022-10-26T11:43:38;4.35;;;2.67;;
19687;SDS011;9993;52.008;4.732;2022-10-26T11:46:10;4.28;;;2.40;;
19687;SDS011;9993;52.008;4.732;2022-10-26T11:48:57;3.22;;;2.47;;
19687;SDS011;9993;52.008;4.732;2022-10-26T11:54:12;6.90;;;2.40;;
19687;SDS011;9993;52.008;4.732;2022-10-26T11:56:47;4.07;;;2.10;;
19687;SDS011;9993;52.008;4.732;2022-10-26T11:59:17;5.30;;;2.30;;
19687;SDS011;9993;52.008;4.732;2022-10-26T12:01:44;4.40;;;2.22;;
19687;SDS011;9993;52.008;4.732;2022-10-26T12:04:10;2.90;;;2.17;;
19687;SDS011;9993;52.008;4.732;2022-10-26T12:06:35;2.05;;;1.92;;
19687;SDS011;9993;52.008;4.732;2022-10-26T12:09:05;4.60;;;2.70;;
19687;SDS011;9993;52.008;4.732;2022-10-26T12:16:55;3.97;;;2.95;;
19687;SDS011;9993;52.008;4.732;2022-10-26T12:19:25;3.80;;;2.75;;
19687;SDS011;9993;52.008;4.732;2022-10-26T12:21:52;4.82;;;2.70;;
19687;SDS011;9993;52.008;4.732;2022-10-26T12:26:56;6.25;;;2.90;;
19687;SDS011;9993;52.008;4.732;2022-10-26T12:31:49;4.30;;;2.83;;
19687;SDS011;9993;52.008;4.732;2022-10-26T12:34:22;6.18;;;2.80;;
19687;SDS011;9993;52.008;4.732;2022-10-26T12:41:57;4.70;;;2.60;;
19687;SDS011;9993;52.008;4.732;2022-10-26T12:46:57;3.55;;;2.47;;
19687;SDS011;9993;52.008;4.732;2022-10-26T12:52:16;4.80;;;2.70;;
19687;SDS011;9993;52.008;4.732;2022-10-26T12:54:44;5.28;;;2.50;;
19687;SDS011;9993;52.008;4.732;2022-10-26T12:57:21;5.25;;;3.00;;
19687;SDS011;9993;52.008;4.732;2022-10-26T12:59:59;7.07;;;3.17;;
19687;SDS011;9993;52.008;4.732;2022-10-26T13:07:43;6.15;;;2.60;;
19687;SDS011;9993;52.008;4.732;2022-10-26T13:15:17;4.45;;;2.38;;
19687;SDS011;9993;52.008;4.732;2022-10-26T13:17:43;5.53;;;2.47;;
19687;SDS011;9993;52.008;4.732;2022-10-26T13:20:16;3.63;;;2.10;;
19687;SDS011;9993;52.008;4.732;2022-10-26T13:22:43;3.13;;;1.95;;
19687;SDS011;9993;52.008;4.732;2022-10-26T13:25:17;3.90;;;1.83;;
19687;SDS011;9993;52.008;4.732;2022-10-26T13:27:46;6.80;;;2.28;;
19687;SDS011;9993;52.008;4.732;2022-10-26T13:30:33;4.60;;;1.92;;
19687;SDS011;9993;52.008;4.732;2022-10-26T13:33:00;3.30;;;1.80;;
19687;SDS011;9993;52.008;4.732;2022-10-26T13:35:26;3.30;;;1.90;;
19687;SDS011;9993;52.008;4.732;2022-10-26T13:37:55;4.20;;;1.77;;
19687;SDS011;9993;52.008;4.732;2022-10-26T13:40:25;3.28;;;1.98;;
19687;SDS011;9993;52.008;4.732;2022-10-26T13:42:52;3.17;;;1.83;;
19687;SDS011;9993;52.008;4.732;2022-10-26T13:45:19;4.40;;;1.92;;
19687;SDS011;9993;52.008;4.732;2022-10-26T13:47:47;7.40;;;2.55;;
19687;SDS011;9993;52.008;4.732;2022-10-26T13:50:14;4.00;;;2.10;;
19687;SDS011;9993;52.008;4.732;2022-10-26T13:52:41;2.15;;;1.90;;
19687;SDS011;9993;52.008;4.732;2022-10-26T13:55:21;5.05;;;2.17;;
19687;SDS011;9993;52.008;4.732;2022-10-26T14:00:31;3.63;;;2.30;;
19687;SDS011;9993;52.008;4.732;2022-10-26T14:02:56;3.30;;;1.80;;
19687;SDS011;9993;52.008;4.732;2022-10-26T14:05:21;6.38;;;1.90;;
19687;SDS011;9993;52.008;4.732;2022-10-26T14:07:54;4.65;;;1.90;;
19687;SDS011;9993;52.008;4.732;2022-10-26T14:12:55;5.50;;;1.60;;
19687;SDS011;9993;52.008;4.732;2022-10-26T14:15:25;4.70;;;1.63;;
19687;SDS011;9993;52.008;4.732;2022-10-26T14:17:52;3.95;;;2.03;;
19687;SDS011;9993;52.008;4.732;2022-10-26T14:20:18;3.85;;;2.13;;
19687;SDS011;9993;52.008;4.732;2022-10-26T14:22:44;5.10;;;1.92;;
19687;SDS011;9993;52.008;4.732;2022-10-26T14:25:25;3.50;;;2.00;;
19687;SDS011;9993;52.008;4.732;2022-10-26T14:27:51;5.85;;;2.40;;
19687;SDS011;9993;52.008;4.732;2022-10-26T14:30:24;5.15;;;1.67;;
19687;SDS011;9993;52.008;4.732;2022-10-26T14:32:50;4.80;;;2.40;;
19687;SDS011;9993;52.008;4.732;2022-10-26T14:35:15;5.88;;;2.40;;
19687;SDS011;9993;52.008;4.732;2022-10-26T14:40:16;4.05;;;2.22;;
19687;SDS011;9993;52.008;4.732;2022-10-26T14:42:42;5.55;;;2.30;;
19687;SDS011;9993;52.008;4.732;2022-10-26T14:45:23;4.97;;;2.10;;
19687;SDS011;9993;52.008;4.732;2022-10-26T14:47:49;6.40;;;2.50;;
19687;SDS011;9993;52.008;4.732;2022-10-26T14:50:21;3.47;;;1.90;;
19687;SDS011;9993;52.008;4.732;2022-10-26T14:52:57;6.53;;;2.35;;
19687;SDS011;9993;52.008;4.732;2022-10-26T14:55:23;2.90;;;2.20;;
19687;SDS011;9993;52.008;4.732;2022-10-26T14:57:50;2.38;;;1.80;;
19687;SDS011;9993;52.008;4.732;2022-10-26T15:00:17;3.70;;;1.70;;
19687;SDS011;9993;52.008;4.732;2022-10-26T15:02:43;4.28;;;2.13;;
19687;SDS011;9993;52.008;4.732;2022-10-26T15:07:47;6.10;;;1.80;;
19687;SDS011;9993;52.008;4.732;2022-10-26T15:12:56;5.47;;;2.08;;
19687;SDS011;9993;52.008;4.732;2022-10-26T15:15:22;7.85;;;2.05;;
19687;SDS011;9993;52.008;4.732;2022-10-26T15:17:51;3.28;;;1.73;;
19687;SDS011;9993;52.008;4.732;2022-10-26T15:20:18;4.22;;;2.00;;
19687;SDS011;9993;52.008;4.732;2022-10-26T15:22:51;3.97;;;1.70;;
19687;SDS011;9993;52.008;4.732;2022-10-26T15:25:27;3.58;;;2.17;;
19687;SDS011;9993;52.008;4.732;2022-10-26T15:27:53;6.25;;;2.20;;
19687;SDS011;9993;52.008;4.732;2022-10-26T15:32:43;3.53;;;1.67;;
19687;SDS011;9993;52.008;4.732;2022-10-26T15:37:40;4.78;;;1.50;;
19687;SDS011;9993;52.008;4.732;2022-10-26T15:40:05;3.20;;;1.85;;
19687;SDS011;9993;52.008;4.732;2022-10-26T15:42:31;3.83;;;1.98;;
19687;SDS011;9993;52.008;4.732;2022-10-26T15:44:57;4.85;;;1.90;;
19687;SDS011;9993;52.008;4.732;2022-10-26T15:47:22;5.75;;;1.98;;
19687;SDS011;9993;52.008;4.732;2022-10-26T15:49:51;4.88;;;1.95;;
19687;SDS011;9993;52.008;4.732;2022-10-26T15:52:17;6.22;;;2.10;;
19687;SDS011;9993;52.008;4.732;2022-10-26T15:54:42;3.87;;;2.20;;
19687;SDS011;9993;52.008;4.732;2022-10-26T15:57:08;3.28;;;2.08;;
19687;SDS011;9993;52.008;4.732;2022-10-26T15:59:36;3.88;;;1.90;;
19687;SDS011;9993;52.008;4.732;2022-10-26T16:02:07;5.53;;;2.25;;
19687;SDS011;9993;52.008;4.732;2022-10-26T16:04:35;3.00;;;1.90;;
19687;SDS011;9993;52.008;4.732;2022-10-26T16:07:01;3.40;;;1.88;;
19687;SDS011;9993;52.008;4.732;2022-10-26T16:09:29;3.22;;;2.10;;
19687;SDS011;9993;52.008;4.732;2022-10-26T16:11:54;4.50;;;1.90;;
19687;SDS011;9993;52.008;4.732;2022-10-26T16:14:20;3.83;;;2.45;;
19687;SDS011;9993;52.008;4.732;2022-10-26T16:16:45;3.80;;;2.15;;
19687;SDS011;9993;52.008;4.732;2022-10-26T16:19:10;4.28;;;2.55;;
19687;SDS011;9993;52.008;4.732;2022-10-26T16:21:35;4.43;;;1.80;;
19687;SDS011;9993;52.008;4.732;2022-10-26T16:24:00;3.70;;;2.00;;
19687;SDS011;9993;52.008;4.732;2022-10-26T16:26:26;6.40;;;2.20;;
19687;SDS011;9993;52.008;4.732;2022-10-26T16:28:51;6.00;;;2.80;;
19687;SDS011;9993;52.008;4.732;2022-10-26T16:31:17;2.28;;;1.95;;
19687;SDS011;9993;52.008;4.732;2022-10-26T16:33:43;3.00;;;2.17;;
19687;SDS011;9993;52.008;4.732;2022-10-26T16:36:09;7.93;;;2.20;;
19687;SDS011;9993;52.008;4.732;2022-10-26T16:38:34;4.63;;;2.30;;
19687;SDS011;9993;52.008;4.732;2022-10-26T16:41:06;6.47;;;2.10;;
19687;SDS011;9993;52.008;4.732;2022-10-26T16:43:32;3.45;;;2.17;;
19687;SDS011;9993;52.008;4.732;2022-10-26T16:45:58;5.53;;;1.92;;
19687;SDS011;9993;52.008;4.732;2022-10-26T16:48:23;3.78;;;2.08;;
19687;SDS011;9993;52.008;4.732;2022-10-26T16:50:49;3.22;;;2.13;;
19687;SDS011;9993;52.008;4.732;2022-10-26T16:53:14;3.05;;;2.00;;
19687;SDS011;9993;52.008;4.732;2022-10-26T16:55:39;5.20;;;2.05;;
19687;SDS011;9993;52.008;4.732;2022-10-26T16:58:04;2.40;;;1.95;;
19687;SDS011;9993;52.008;4.732;2022-10-26T17:00:30;3.70;;;2.30;;
19687;SDS011;9993;52.008;4.732;2022-10-26T17:02:55;3.53;;;2.03;;
19687;SDS011;9993;52.008;4.732;2022-10-26T17:05:20;4.65;;;1.92;;
19687;SDS011;9993;52.008;4.732;2022-10-26T17:07:46;4.07;;;2.03;;
19687;SDS011;9993;52.008;4.732;2022-10-26T17:10:11;4.18;;;2.20;;
19687;SDS011;9993;52.008;4.732;2022-10-26T17:12:36;2.78;;;2.28;;
19687;SDS011;9993;52.008;4.732;2022-10-26T17:15:01;5.20;;;2.47;;
19687;SDS011;9993;52.008;4.732;2022-10-26T17:17:27;4.85;;;2.50;;
19687;SDS011;9993;52.008;4.732;2022-10-26T17:19:52;4.50;;;2.35;;
19687;SDS011;9993;52.008;4.732;2022-10-26T17:22:17;5.18;;;2.53;;